createdAt,value
2022-08-23T00:02:40.419Z,8.87
2022-08-23T00:07:45.547Z,8.20
2022-08-23T00:12:48.269Z,9.30
2022-08-23T00:17:50.992Z,7.80
2022-08-23T00:22:53.825Z,8.07
2022-08-23T00:27:56.560Z,7.90
2022-08-23T00:33:00.811Z,7.20
2022-08-23T00:38:33.014Z,8.00
2022-08-23T00:43:57.251Z,6.57
2022-08-23T00:49:02.170Z,7.80
2022-08-23T00:54:05.544Z,9.17
2022-08-23T00:59:08.940Z,6.63
2022-08-23T01:04:12.942Z,7.33
2022-08-23T01:09:21.238Z,8.20
2022-08-23T01:14:31.819Z,7.63
2022-08-23T01:19:40.913Z,8.30
2022-08-23T01:25:07.243Z,7.37
2022-08-23T01:30:11.006Z,7.90
2022-08-23T01:35:14.875Z,5.63
2022-08-23T01:40:17.856Z,7.97
2022-08-23T01:45:20.686Z,7.22
2022-08-23T01:50:24.138Z,6.60
2022-08-23T01:55:27.819Z,7.13
2022-08-23T02:00:34.223Z,8.87
2022-08-23T02:05:37.399Z,7.57
2022-08-23T02:10:40.087Z,9.43
2022-08-23T02:15:47.117Z,7.47
2022-08-23T02:20:51.594Z,7.90
2022-08-23T02:25:54.991Z,7.00
2022-08-23T02:30:57.729Z,7.57
2022-08-23T02:36:01.572Z,7.83
2022-08-23T02:41:04.282Z,5.07
2022-08-23T02:46:07.243Z,6.87
2022-08-23T02:51:10.014Z,7.30
2022-08-23T02:56:21.685Z,7.43
2022-08-23T03:01:34.773Z,10.40
2022-08-23T03:06:38.353Z,8.97
2022-08-23T03:11:45.518Z,9.13
2022-08-23T03:16:48.216Z,8.77
2022-08-23T03:21:51.087Z,7.47
2022-08-23T03:26:53.802Z,9.20
2022-08-23T03:31:56.500Z,10.03
2022-08-23T03:37:00.514Z,9.70
2022-08-23T03:42:04.339Z,11.70
2022-08-23T03:47:07.347Z,10.43
2022-08-23T03:52:11.418Z,10.27
2022-08-23T03:57:14.125Z,10.07
2022-08-23T04:02:17.461Z,9.80
2022-08-23T04:07:21.424Z,10.27
2022-08-23T04:12:24.455Z,11.70
2022-08-23T04:17:27.517Z,12.30
2022-08-23T04:22:30.262Z,13.80
2022-08-23T04:27:33.059Z,12.77
2022-08-23T04:32:35.750Z,16.30
2022-08-23T04:37:39.162Z,12.97
2022-08-23T04:42:41.937Z,17.33
2022-08-23T04:47:45.229Z,17.87
2022-08-23T04:52:48.281Z,18.47
2022-08-23T04:57:51.097Z,21.07
2022-08-23T05:02:55.563Z,19.93
2022-08-23T05:07:58.351Z,22.97
2022-08-23T05:13:01.065Z,27.10
2022-08-23T05:18:03.806Z,24.97
2022-08-23T05:23:06.697Z,28.07
2022-08-23T05:28:09.396Z,29.27
2022-08-23T05:33:14.355Z,31.67
2022-08-23T05:38:20.695Z,31.50
2022-08-23T05:43:24.313Z,33.17
2022-08-23T05:48:26.996Z,30.10
2022-08-23T05:53:31.395Z,35.35
2022-08-23T05:58:35.219Z,30.55
2022-08-23T06:03:38.214Z,32.80
2022-08-23T06:08:41.393Z,25.80
2022-08-23T06:13:47.536Z,28.77
2022-08-23T06:18:50.763Z,28.20
2022-08-23T06:23:53.504Z,29.73
2022-08-23T06:28:58.188Z,31.47
2022-08-23T06:34:01.529Z,30.50
2022-08-23T06:39:06.498Z,36.17
2022-08-23T06:44:09.353Z,31.50
2022-08-23T06:49:12.786Z,37.72
2022-08-23T06:54:16.999Z,31.60
2022-08-23T06:59:21.514Z,27.85
2022-08-23T07:04:34.351Z,31.33
2022-08-23T07:09:37.193Z,39.30
2022-08-23T07:14:40.070Z,44.78
2022-08-23T07:19:44.207Z,54.28
2022-08-23T07:24:47.052Z,45.13
2022-08-23T07:29:49.803Z,44.42
2022-08-23T07:34:52.602Z,38.22
2022-08-23T07:39:58.503Z,40.50
2022-08-23T07:45:02.811Z,35.40
2022-08-23T07:50:09.024Z,36.83
2022-08-23T07:55:11.787Z,36.88
2022-08-23T08:00:15.397Z,37.20
2022-08-23T08:05:21.540Z,33.80
2022-08-23T08:10:25.123Z,36.67
2022-08-23T08:15:27.986Z,35.80
2022-08-23T08:20:33.041Z,41.08
2022-08-23T08:25:35.736Z,36.03
2022-08-23T08:30:39.287Z,42.03
2022-08-23T08:35:41.990Z,40.28
2022-08-23T08:40:44.841Z,49.83
2022-08-23T08:46:05.585Z,58.67
2022-08-23T08:51:25.146Z,54.05
2022-08-23T08:56:35.358Z,51.67
2022-08-23T09:01:38.907Z,48.13
2022-08-23T09:07:18.542Z,51.97
2022-08-23T09:12:56.175Z,47.65
2022-08-23T09:18:13.663Z,37.97
2022-08-23T09:23:39.011Z,37.17
2022-08-23T09:28:41.816Z,32.70
2022-08-23T09:33:46.294Z,31.73
2022-08-23T09:38:54.869Z,35.05
2022-08-23T09:43:59.211Z,35.25
2022-08-23T09:49:29.815Z,34.63
2022-08-23T09:54:37.220Z,35.10
2022-08-23T09:59:51.682Z,31.60
2022-08-23T10:05:07.260Z,33.72
2022-08-23T10:10:47.066Z,36.65
2022-08-23T10:16:05.679Z,35.78
2022-08-23T10:21:32.769Z,35.70
2022-08-23T10:26:38.037Z,30.40
2022-08-23T10:31:40.720Z,32.92
2022-08-23T10:36:58.641Z,31.77
2022-08-23T10:42:31.752Z,29.50
2022-08-23T10:47:38.557Z,30.02
2022-08-23T10:53:05.842Z,37.15
2022-08-23T10:58:13.715Z,32.15
2022-08-23T11:03:29.958Z,33.63
2022-08-23T11:08:35.145Z,37.22
2022-08-23T11:13:40.753Z,34.53
2022-08-23T11:18:44.564Z,28.77
2022-08-23T11:23:59.344Z,34.63
2022-08-23T11:29:07.849Z,36.65
2022-08-23T11:34:29.934Z,34.40
2022-08-23T11:39:58.993Z,38.13
2022-08-23T11:45:02.135Z,31.30
2022-08-23T11:50:19.810Z,38.25
2022-08-23T11:55:47.250Z,42.03
2022-08-23T12:00:53.242Z,32.42
2022-08-23T12:05:55.905Z,41.75
2022-08-23T12:11:02.263Z,34.95
2022-08-23T12:16:16.736Z,37.00
2022-08-23T12:21:38.722Z,33.00
2022-08-23T12:27:09.383Z,39.13
2022-08-23T12:32:18.001Z,37.58
2022-08-23T12:37:28.585Z,35.13
2022-08-23T12:42:36.843Z,40.50
2022-08-23T12:47:44.387Z,32.78
2022-08-23T12:53:01.314Z,34.55
2022-08-23T12:58:05.142Z,32.92
2022-08-23T13:03:15.180Z,37.97
2022-08-23T13:08:27.314Z,35.10
2022-08-23T13:13:42.501Z,31.33
2022-08-23T13:18:46.054Z,33.40
2022-08-23T13:23:52.479Z,30.35
2022-08-23T13:29:21.646Z,30.83
2022-08-23T13:34:53.412Z,30.38
2022-08-23T13:40:00.327Z,33.15
2022-08-23T13:45:14.924Z,33.85
2022-08-23T13:50:27.048Z,30.20
2022-08-23T13:55:30.988Z,26.58
2022-08-23T14:00:33.817Z,29.08
2022-08-23T14:05:39.243Z,28.00
2022-08-23T14:10:42.774Z,32.65
2022-08-23T14:21:09.146Z,32.10
2022-08-23T14:26:17.413Z,21.45
2022-08-23T14:31:20.747Z,31.50
2022-08-23T14:36:23.680Z,28.05
2022-08-23T14:41:32.965Z,24.38
2022-08-23T14:46:35.680Z,37.05
2022-08-23T14:51:44.804Z,37.50
2022-08-23T14:56:48.356Z,33.17
2022-08-23T15:01:53.094Z,37.97
2022-08-23T15:07:17.147Z,30.20
2022-08-23T15:17:52.387Z,34.60
2022-08-23T15:22:56.106Z,29.05
2022-08-23T15:28:00.236Z,26.63
2022-08-23T15:33:03.806Z,27.33
2022-08-23T15:38:07.078Z,27.25
2022-08-23T15:43:09.848Z,29.85
2022-08-23T15:48:22.535Z,26.85
2022-08-23T15:53:25.484Z,23.40
2022-08-23T15:58:29.017Z,33.25
2022-08-23T16:03:31.966Z,33.35
2022-08-23T16:08:38.228Z,24.38
2022-08-23T16:13:46.399Z,30.88
2022-08-23T16:18:51.599Z,30.73
2022-08-23T16:23:55.650Z,31.98
2022-08-23T16:28:59.554Z,29.98
2022-08-23T16:34:03.962Z,28.05
2022-08-23T16:39:07.333Z,31.25
2022-08-23T16:44:10.087Z,30.50
2022-08-23T16:49:14.634Z,28.58
2022-08-23T16:54:19.316Z,26.17
2022-08-23T16:59:22.900Z,29.63
2022-08-23T17:04:30.228Z,24.23
2022-08-23T17:09:33.167Z,25.90
2022-08-23T17:14:36.222Z,26.02
2022-08-23T17:19:39.371Z,25.20
2022-08-23T17:24:45.153Z,31.17
2022-08-23T17:29:48.020Z,25.73
2022-08-23T17:34:51.736Z,27.25
2022-08-23T17:39:54.619Z,27.42
2022-08-23T17:44:57.831Z,24.67
2022-08-23T17:50:00.898Z,25.15
2022-08-23T17:55:04.104Z,26.70
2022-08-23T18:00:08.563Z,31.33
2022-08-23T18:05:12.132Z,25.98
2022-08-23T18:10:15.012Z,25.15
2022-08-23T18:15:18.614Z,26.10
2022-08-23T18:20:22.660Z,26.92
2022-08-23T18:25:48.438Z,30.33
2022-08-23T18:31:47.522Z,26.83
2022-08-23T18:36:51.331Z,28.27
2022-08-23T18:41:54.900Z,35.55
2022-08-23T18:46:58.010Z,28.15
2022-08-23T18:52:01.828Z,23.75
2022-08-23T18:57:05.195Z,27.48
2022-08-23T19:02:08.424Z,24.08
2022-08-23T19:07:11.222Z,28.90
2022-08-23T19:12:14.468Z,27.85
2022-08-23T19:17:17.231Z,30.77
2022-08-23T19:22:20.143Z,32.75
2022-08-23T19:27:23.063Z,35.67
2022-08-23T19:32:25.882Z,35.42
2022-08-23T19:37:28.823Z,32.95
2022-08-23T19:42:36.620Z,31.98
2022-08-23T19:47:40.320Z,32.10
2022-08-23T19:52:43.492Z,44.70
2022-08-23T19:57:46.772Z,44.00
2022-08-23T20:02:49.751Z,43.50
2022-08-23T20:07:52.533Z,37.95
2022-08-23T20:12:55.429Z,41.15
2022-08-23T20:17:58.882Z,39.72
2022-08-23T20:23:20.148Z,47.72
2022-08-23T20:28:26.283Z,50.28
2022-08-23T20:33:31.088Z,49.97
2022-08-23T20:38:34.241Z,63.10
2022-08-23T20:43:39.179Z,43.17
2022-08-23T20:48:41.869Z,52.75
2022-08-23T20:53:45.853Z,48.78
2022-08-23T20:58:48.985Z,50.03
2022-08-23T21:03:52.170Z,48.80
2022-08-23T21:08:57.906Z,61.35
2022-08-23T21:14:00.843Z,56.13
2022-08-23T21:19:04.024Z,55.40
2022-08-23T21:24:08.235Z,54.35
2022-08-23T21:29:11.483Z,67.95
2022-08-23T21:34:14.248Z,58.90
2022-08-23T21:39:17.256Z,51.70
2022-08-23T21:44:21.125Z,47.17
2022-08-23T21:49:23.963Z,40.83
2022-08-23T21:54:26.810Z,42.20
2022-08-23T21:59:29.811Z,39.13
2022-08-23T22:04:32.515Z,33.80
2022-08-23T22:09:35.278Z,41.97
2022-08-23T22:14:38.118Z,35.97
2022-08-23T22:19:40.873Z,41.20
2022-08-23T22:24:43.798Z,39.90
2022-08-23T22:29:46.601Z,39.40
2022-08-23T22:34:49.635Z,43.15
2022-08-23T22:39:56.370Z,36.03
2022-08-23T22:44:59.667Z,40.90
2022-08-23T22:50:03.708Z,41.92
2022-08-23T22:55:06.838Z,34.35
2022-08-23T23:00:11.337Z,37.30
2022-08-23T23:05:14.568Z,39.55
2022-08-23T23:10:17.308Z,38.72
2022-08-23T23:15:20.015Z,37.53
2022-08-23T23:20:41.122Z,34.60
2022-08-23T23:25:46.181Z,33.63
2022-08-23T23:30:51.143Z,31.00
2022-08-23T23:35:53.900Z,33.22
2022-08-23T23:40:56.565Z,31.42
2022-08-23T23:45:59.393Z,35.45
2022-08-23T23:51:05.127Z,29.88
2022-08-23T23:56:10.923Z,33.25
